sensor_id;sensor_type;location;lat;lon;timestamp;pressure;altitude;pressure_sealevel;temperature;humidity
18749;BME280;9503;53.560;10.246;2023-04-01T00:01:07;98888.91;;;16.21;93.83
18749;BME280;9503;53.560;10.246;2023-04-01T00:03:34;98887.16;;;16.26;92.29
18749;BME280;9503;53.560;10.246;2023-04-01T00:06:01;98895.78;;;16.26;92.98
18749;BME280;9503;53.560;10.246;2023-04-01T00:08:28;98889.00;;;15.98;93.75
18749;BME280;9503;53.560;10.246;2023-04-01T00:10:57;98891.44;;;16.28;92.38
18749;BME280;9503;53.560;10.246;2023-04-01T00:13:25;98889.00;;;15.95;94.22
18749;BME280;9503;53.560;10.246;2023-04-01T00:15:53;98883.88;;;15.81;94.13
18749;BME280;9503;53.560;10.246;2023-04-01T00:18:19;98894.91;;;16.23;93.24
18749;BME280;9503;53.560;10.246;2023-04-01T00:20:47;98888.09;;;16.11;92.95
18749;BME280;9503;53.560;10.246;2023-04-01T00:23:14;98890.66;;;16.11;93.68
18749;BME280;9503;53.560;10.246;2023-04-01T00:25:41;98887.97;;;16.34;92.01
18749;BME280;9503;53.560;10.246;2023-04-01T00:28:09;98890.63;;;16.22;91.45
18749;BME280;9503;53.560;10.246;2023-04-01T00:30:36;98893.19;;;16.28;91.92
18749;BME280;9503;53.560;10.246;2023-04-01T00:33:02;98898.38;;;16.25;92.07
18749;BME280;9503;53.560;10.246;2023-04-01T00:35:29;98889.72;;;16.32;92.19
18749;BME280;9503;53.560;10.246;2023-04-01T00:37:57;98893.28;;;16.10;92.65
18749;BME280;9503;53.560;10.246;2023-04-01T00:40:27;98896.63;;;16.27;91.76
18749;BME280;9503;53.560;10.246;2023-04-01T00:42:54;98888.94;;;16.12;93.30
18749;BME280;9503;53.560;10.246;2023-04-01T00:45:34;98891.53;;;16.10;92.19
18749;BME280;9503;53.560;10.246;2023-04-01T00:48:04;98890.53;;;16.40;90.46
18749;BME280;9503;53.560;10.246;2023-04-01T00:50:33;98891.56;;;15.99;92.17
18749;BME280;9503;53.560;10.246;2023-04-01T00:53:01;98891.50;;;16.21;92.06
18749;BME280;9503;53.560;10.246;2023-04-01T00:55:31;98891.59;;;15.90;94.19
18749;BME280;9503;53.560;10.246;2023-04-01T00:57:59;98889.75;;;16.21;92.25
18749;BME280;9503;53.560;10.246;2023-04-01T01:00:28;98889.00;;;15.93;92.80
18749;BME280;9503;53.560;10.246;2023-04-01T01:02:56;98893.38;;;15.70;93.66
18749;BME280;9503;53.560;10.246;2023-04-01T01:05:29;98892.44;;;16.03;92.95
18749;BME280;9503;53.560;10.246;2023-04-01T01:08:02;98895.03;;;15.98;92.89
18749;BME280;9503;53.560;10.246;2023-04-01T01:10:36;98895.06;;;15.89;93.93
18749;BME280;9503;53.560;10.246;2023-04-01T01:13:10;98897.56;;;16.06;92.04
18749;BME280;9503;53.560;10.246;2023-04-01T01:15:41;98891.53;;;16.13;91.63
18749;BME280;9503;53.560;10.246;2023-04-01T01:18:19;98888.22;;;15.58;93.60
18749;BME280;9503;53.560;10.246;2023-04-01T01:20:56;98889.06;;;15.81;93.54
18749;BME280;9503;53.560;10.246;2023-04-01T01:23:43;98894.19;;;15.84;93.45
18749;BME280;9503;53.560;10.246;2023-04-01T01:26:36;98897.69;;;15.46;94.50
18749;BME280;9503;53.560;10.246;2023-04-01T01:29:14;98893.28;;;16.10;92.55
18749;BME280;9503;53.560;10.246;2023-04-01T01:31:53;98898.53;;;15.71;93.00
18749;BME280;9503;53.560;10.246;2023-04-01T01:34:26;98895.13;;;15.65;94.56
18749;BME280;9503;53.560;10.246;2023-04-01T01:36:59;98895.09;;;15.71;94.34
18749;BME280;9503;53.560;10.246;2023-04-01T01:39:30;98891.66;;;15.80;93.88
18749;BME280;9503;53.560;10.246;2023-04-01T01:42:01;98896.81;;;15.77;93.60
18749;BME280;9503;53.560;10.246;2023-04-01T01:44:30;98901.91;;;15.93;93.01
18749;BME280;9503;53.560;10.246;2023-04-01T01:46:58;98896.81;;;15.57;94.02
18749;BME280;9503;53.560;10.246;2023-04-01T01:49:27;98899.44;;;15.64;94.45
18749;BME280;9503;53.560;10.246;2023-04-01T01:51:56;98898.50;;;15.85;93.79
18749;BME280;9503;53.560;10.246;2023-04-01T01:54:23;98900.28;;;15.33;96.62
18749;BME280;9503;53.560;10.246;2023-04-01T01:56:54;98902.84;;;15.57;95.22
18749;BME280;9503;53.560;10.246;2023-04-01T01:59:24;98902.00;;;15.08;96.56
18749;BME280;9503;53.560;10.246;2023-04-01T02:01:55;98902.00;;;15.32;97.46
18749;BME280;9503;53.560;10.246;2023-04-01T02:04:25;98903.75;;;15.06;98.14
18749;BME280;9503;53.560;10.246;2023-04-01T02:06:58;98901.13;;;15.41;97.38
18749;BME280;9503;53.560;10.246;2023-04-01T02:09:27;98904.53;;;15.84;94.13
18749;BME280;9503;53.560;10.246;2023-04-01T02:11:56;98906.28;;;15.70;94.17
18749;BME280;9503;53.560;10.246;2023-04-01T02:14:27;98907.09;;;15.86;94.04
18749;BME280;9503;53.560;10.246;2023-04-01T02:16:57;98909.72;;;15.77;93.79
18749;BME280;9503;53.560;10.246;2023-04-01T02:19:27;98902.84;;;15.40;96.51
18749;BME280;9503;53.560;10.246;2023-04-01T02:22:01;98909.75;;;15.15;98.08
18749;BME280;9503;53.560;10.246;2023-04-01T02:24:31;98912.34;;;15.51;96.67
18749;BME280;9503;53.560;10.246;2023-04-01T02:26:59;98904.56;;;14.83;98.75
18749;BME280;9503;53.560;10.246;2023-04-01T02:29:26;98910.59;;;15.53;96.20
18749;BME280;9503;53.560;10.246;2023-04-01T02:31:54;98911.47;;;15.58;95.08
18749;BME280;9503;53.560;10.246;2023-04-01T02:34:22;98909.75;;;15.23;96.45
18749;BME280;9503;53.560;10.246;2023-04-01T02:36:50;98909.75;;;15.14;96.15
18749;BME280;9503;53.560;10.246;2023-04-01T02:39:20;98911.44;;;14.77;99.76
18749;BME280;9503;53.560;10.246;2023-04-01T02:41:47;98916.59;;;14.78;100.00
18749;BME280;9503;53.560;10.246;2023-04-01T02:44:14;98911.47;;;15.04;100.00
18749;BME280;9503;53.560;10.246;2023-04-01T02:46:42;98914.03;;;14.89;100.00
18749;BME280;9503;53.560;10.246;2023-04-01T02:49:09;98921.81;;;15.13;100.00
18749;BME280;9503;53.560;10.246;2023-04-01T02:51:35;98921.78;;;15.01;99.35
18749;BME280;9503;53.560;10.246;2023-04-01T02:54:02;98924.38;;;15.24;98.85
18749;BME280;9503;53.560;10.246;2023-04-01T02:56:30;98925.22;;;15.12;98.53
18749;BME280;9503;53.560;10.246;2023-04-01T02:58:57;98923.44;;;14.62;99.65
18749;BME280;9503;53.560;10.246;2023-04-01T03:01:23;98930.41;;;15.02;100.00
18749;BME280;9503;53.560;10.246;2023-04-01T03:03:50;98935.56;;;15.41;97.18
18749;BME280;9503;53.560;10.246;2023-04-01T03:06:17;98932.13;;;15.23;98.55
18749;BME280;9503;53.560;10.246;2023-04-01T03:08:44;98936.44;;;15.08;99.55
18749;BME280;9503;53.560;10.246;2023-04-01T03:11:11;98942.34;;;14.57;100.00
18749;BME280;9503;53.560;10.246;2023-04-01T03:13:39;98937.22;;;14.72;100.00
18749;BME280;9503;53.560;10.246;2023-04-01T03:16:05;98933.00;;;15.08;100.00
18749;BME280;9503;53.560;10.246;2023-04-01T03:18:32;98937.28;;;15.06;100.00
18749;BME280;9503;53.560;10.246;2023-04-01T03:21:12;98933.00;;;15.22;98.52
18749;BME280;9503;53.560;10.246;2023-04-01T03:23:39;98941.59;;;15.37;97.18
18749;BME280;9503;53.560;10.246;2023-04-01T03:26:06;98939.84;;;14.98;97.68
18749;BME280;9503;53.560;10.246;2023-04-01T03:28:32;98942.47;;;15.59;96.33
18749;BME280;9503;53.560;10.246;2023-04-01T03:31:00;98944.19;;;15.69;95.08
18749;BME280;9503;53.560;10.246;2023-04-01T03:33:27;98941.59;;;15.10;96.48
18749;BME280;9503;53.560;10.246;2023-04-01T03:35:54;98947.59;;;15.04;98.17
18749;BME280;9503;53.560;10.246;2023-04-01T03:38:20;98939.88;;;15.18;99.57
18749;BME280;9503;53.560;10.246;2023-04-01T03:40:47;98945.91;;;15.51;96.56
18749;BME280;9503;53.560;10.246;2023-04-01T03:43:13;98948.47;;;15.89;94.84
18749;BME280;9503;53.560;10.246;2023-04-01T03:45:43;98944.19;;;15.46;96.10
18749;BME280;9503;53.560;10.246;2023-04-01T03:48:11;98952.78;;;15.52;96.87
18749;BME280;9503;53.560;10.246;2023-04-01T03:50:38;98957.09;;;15.60;95.37
18749;BME280;9503;53.560;10.246;2023-04-01T03:53:05;98957.09;;;15.63;96.10
18749;BME280;9503;53.560;10.246;2023-04-01T03:55:31;98957.97;;;15.82;94.27
18749;BME280;9503;53.560;10.246;2023-04-01T03:57:58;98963.09;;;15.91;94.11
18749;BME280;9503;53.560;10.246;2023-04-01T04:00:27;98955.38;;;15.15;96.20
18749;BME280;9503;53.560;10.246;2023-04-01T04:02:54;98952.78;;;15.56;96.48
18749;BME280;9503;53.560;10.246;2023-04-01T04:05:22;98963.09;;;15.56;95.04
18749;BME280;9503;53.560;10.246;2023-04-01T04:07:49;98957.09;;;15.40;96.84
18749;BME280;9503;53.560;10.246;2023-04-01T04:10:16;98965.69;;;15.33;95.36
18749;BME280;9503;53.560;10.246;2023-04-01T04:12:43;98963.13;;;15.50;95.11
18749;BME280;9503;53.560;10.246;2023-04-01T04:15:10;98966.44;;;14.67;98.83
18749;BME280;9503;53.560;10.246;2023-04-01T04:17:37;98968.28;;;15.29;98.23
18749;BME280;9503;53.560;10.246;2023-04-01T04:20:05;98969.97;;;14.91;98.96
18749;BME280;9503;53.560;10.246;2023-04-01T04:22:33;98968.03;;;14.42;100.00
18749;BME280;9503;53.560;10.246;2023-04-01T04:24:59;98968.22;;;14.90;100.00
18749;BME280;9503;53.560;10.246;2023-04-01T04:27:26;98972.34;;;14.40;100.00
18749;BME280;9503;53.560;10.246;2023-04-01T04:29:52;98979.34;;;14.63;100.00
18749;BME280;9503;53.560;10.246;2023-04-01T04:32:19;98978.59;;;15.07;99.90
18749;BME280;9503;53.560;10.246;2023-04-01T04:34:46;98979.41;;;14.96;99.20
18749;BME280;9503;53.560;10.246;2023-04-01T04:37:12;98982.78;;;14.67;100.00
18749;BME280;9503;53.560;10.246;2023-04-01T04:39:40;98986.31;;;15.12;99.59
18749;BME280;9503;53.560;10.246;2023-04-01T04:42:07;98989.75;;;14.91;100.00
18749;BME280;9503;53.560;10.246;2023-04-01T04:44:33;98987.78;;;14.36;100.00
18749;BME280;9503;53.560;10.246;2023-04-01T04:47:00;98994.03;;;14.92;100.00
18749;BME280;9503;53.560;10.246;2023-04-01T04:49:27;98996.66;;;15.09;98.99
18749;BME280;9503;53.560;10.246;2023-04-01T04:51:54;99001.88;;;15.53;96.75
18749;BME280;9503;53.560;10.246;2023-04-01T04:54:20;99004.47;;;15.59;97.52
18749;BME280;9503;53.560;10.246;2023-04-01T04:56:50;99005.31;;;15.51;95.23
18749;BME280;9503;53.560;10.246;2023-04-01T04:59:17;99001.00;;;15.53;94.90
18749;BME280;9503;53.560;10.246;2023-04-01T05:01:43;99008.78;;;15.57;95.47
18749;BME280;9503;53.560;10.246;2023-04-01T05:04:10;99007.03;;;15.58;94.70
18749;BME280;9503;53.560;10.246;2023-04-01T05:06:37;99019.97;;;15.64;95.46
18749;BME280;9503;53.560;10.246;2023-04-01T05:09:03;99019.94;;;15.44;95.88
18749;BME280;9503;53.560;10.246;2023-04-01T05:11:30;99017.38;;;15.50;96.38
18749;BME280;9503;53.560;10.246;2023-04-01T05:13:58;99019.47;;;14.17;100.00
18749;BME280;9503;53.560;10.246;2023-04-01T05:16:24;99024.19;;;13.58;100.00
18749;BME280;9503;53.560;10.246;2023-04-01T05:18:51;99029.38;;;13.59;100.00
18749;BME280;9503;53.560;10.246;2023-04-01T05:21:18;99034.75;;;13.93;100.00
18749;BME280;9503;53.560;10.246;2023-04-01T05:23:44;99031.59;;;13.22;100.00
18749;BME280;9503;53.560;10.246;2023-04-01T05:26:12;99046.03;;;13.14;100.00
18749;BME280;9503;53.560;10.246;2023-04-01T05:28:40;99044.56;;;13.33;100.00
18749;BME280;9503;53.560;10.246;2023-04-01T05:31:07;99047.66;;;13.03;100.00
18749;BME280;9503;53.560;10.246;2023-04-01T05:33:34;99051.00;;;12.96;100.00
18749;BME280;9503;53.560;10.246;2023-04-01T05:36:09;99057.25;;;13.16;100.00
18749;BME280;9503;53.560;10.246;2023-04-01T05:38:36;99065.22;;;12.65;100.00
18749;BME280;9503;53.560;10.246;2023-04-01T05:41:03;99062.91;;;12.23;100.00
18749;BME280;9503;53.560;10.246;2023-04-01T05:43:29;99068.47;;;12.53;100.00
18749;BME280;9503;53.560;10.246;2023-04-01T05:45:56;99075.38;;;12.57;100.00
18749;BME280;9503;53.560;10.246;2023-04-01T05:48:24;99077.25;;;12.69;100.00
18749;BME280;9503;53.560;10.246;2023-04-01T05:50:51;99080.44;;;11.94;100.00
18749;BME280;9503;53.560;10.246;2023-04-01T05:53:17;99084.00;;;12.62;100.00
18749;BME280;9503;53.560;10.246;2023-04-01T05:55:44;99087.88;;;12.98;100.00
18749;BME280;9503;53.560;10.246;2023-04-01T05:58:11;99094.69;;;12.28;100.00
18749;BME280;9503;53.560;10.246;2023-04-01T06:00:37;99091.78;;;12.67;100.00
18749;BME280;9503;53.560;10.246;2023-04-01T06:03:04;99100.03;;;12.41;100.00
18749;BME280;9503;53.560;10.246;2023-04-01T06:05:38;99102.41;;;12.31;100.00
18749;BME280;9503;53.560;10.246;2023-04-01T06:08:10;99100.03;;;11.88;100.00
18749;BME280;9503;53.560;10.246;2023-04-01T06:10:48;99100.06;;;11.42;100.00
18749;BME280;9503;53.560;10.246;2023-04-01T06:13:25;99108.41;;;11.78;100.00
18749;BME280;9503;53.560;10.246;2023-04-01T06:16:01;99113.25;;;11.61;100.00
18749;BME280;9503;53.560;10.246;2023-04-01T06:18:42;99119.91;;;11.99;100.00
18749;BME280;9503;53.560;10.246;2023-04-01T06:21:26;99120.28;;;11.72;100.00
18749;BME280;9503;53.560;10.246;2023-04-01T06:24:07;99120.69;;;11.93;100.00
18749;BME280;9503;53.560;10.246;2023-04-01T06:26:48;99133.72;;;11.13;100.00
18749;BME280;9503;53.560;10.246;2023-04-01T06:29:47;99135.75;;;11.29;100.00
18749;BME280;9503;53.560;10.246;2023-04-01T06:32:34;99143.88;;;11.08;100.00
18749;BME280;9503;53.560;10.246;2023-04-01T06:38:23;99141.94;;;11.84;100.00
18749;BME280;9503;53.560;10.246;2023-04-01T06:43:53;99146.38;;;11.48;100.00
18749;BME280;9503;53.560;10.246;2023-04-01T06:46:29;99150.53;;;11.86;100.00
18749;BME280;9503;53.560;10.246;2023-04-01T06:49:32;99152.25;;;11.87;100.00
18749;BME280;9503;53.560;10.246;2023-04-01T06:52:06;99160.06;;;11.48;100.00
18749;BME280;9503;53.560;10.246;2023-04-01T06:54:40;99172.63;;;11.34;100.00
18749;BME280;9503;53.560;10.246;2023-04-01T06:57:19;99167.09;;;11.60;100.00
18749;BME280;9503;53.560;10.246;2023-04-01T06:59:47;99168.47;;;11.40;100.00
18749;BME280;9503;53.560;10.246;2023-04-01T07:02:23;99179.28;;;11.69;100.00
18749;BME280;9503;53.560;10.246;2023-04-01T07:04:53;99184.50;;;11.31;100.00
18749;BME280;9503;53.560;10.246;2023-04-01T07:07:29;99184.66;;;10.96;100.00
18749;BME280;9503;53.560;10.246;2023-04-01T07:10:03;99190.56;;;11.33;100.00
18749;BME280;9503;53.560;10.246;2023-04-01T07:12:39;99189.44;;;11.20;100.00
18749;BME280;9503;53.560;10.246;2023-04-01T07:15:16;99202.00;;;11.49;100.00
18749;BME280;9503;53.560;10.246;2023-04-01T07:17:45;99207.41;;;11.22;100.00
18749;BME280;9503;53.560;10.246;2023-04-01T07:20:17;99205.00;;;10.89;100.00
18749;BME280;9503;53.560;10.246;2023-04-01T07:22:48;99219.75;;;10.99;100.00
18749;BME280;9503;53.560;10.246;2023-04-01T07:25:20;99218.41;;;10.77;100.00
18749;BME280;9503;53.560;10.246;2023-04-01T07:27:47;99219.25;;;10.76;100.00
18749;BME280;9503;53.560;10.246;2023-04-01T07:30:15;99221.78;;;11.14;100.00
18749;BME280;9503;53.560;10.246;2023-04-01T07:32:47;99225.97;;;11.51;100.00
18749;BME280;9503;53.560;10.246;2023-04-01T07:35:22;99232.81;;;11.50;100.00
18749;BME280;9503;53.560;10.246;2023-04-01T07:38:04;99236.66;;;10.89;100.00
18749;BME280;9503;53.560;10.246;2023-04-01T07:40:41;99236.44;;;11.19;100.00
18749;BME280;9503;53.560;10.246;2023-04-01T07:43:35;99242.34;;;10.41;100.00
18749;BME280;9503;53.560;10.246;2023-04-01T07:46:12;99245.41;;;10.99;100.00
18749;BME280;9503;53.560;10.246;2023-04-01T07:48:47;99255.44;;;10.88;100.00
18749;BME280;9503;53.560;10.246;2023-04-01T07:51:19;99260.94;;;11.05;100.00
18749;BME280;9503;53.560;10.246;2023-04-01T07:53:53;99261.06;;;10.73;100.00
18749;BME280;9503;53.560;10.246;2023-04-01T07:56:48;99269.16;;;10.92;100.00
18749;BME280;9503;53.560;10.246;2023-04-01T07:59:23;99273.94;;;11.13;100.00
18749;BME280;9503;53.560;10.246;2023-04-01T08:01:58;99280.31;;;10.23;100.00
18749;BME280;9503;53.560;10.246;2023-04-01T08:04:39;99276.78;;;10.87;100.00
18749;BME280;9503;53.560;10.246;2023-04-01T08:07:10;99282.47;;;11.52;99.72
18749;BME280;9503;53.560;10.246;2023-04-01T08:09:45;99284.81;;;11.42;100.00
18749;BME280;9503;53.560;10.246;2023-04-01T08:12:24;99286.81;;;11.55;99.05
18749;BME280;9503;53.560;10.246;2023-04-01T09:32:08;99393.88;;;10.88;100.00
18749;BME280;9503;53.560;10.246;2023-04-01T09:34:52;99400.09;;;12.09;98.09
18749;BME280;9503;53.560;10.246;2023-04-01T09:37:21;99394.66;;;11.56;98.01
18749;BME280;9503;53.560;10.246;2023-04-01T09:40:21;99399.38;;;11.76;98.64
18749;BME280;9503;53.560;10.246;2023-04-01T09:43:05;99412.13;;;11.35;97.92
18749;BME280;9503;53.560;10.246;2023-04-01T09:45:41;99423.69;;;10.85;100.00
18749;BME280;9503;53.560;10.246;2023-04-01T09:48:21;99421.66;;;12.17;96.45
18749;BME280;9503;53.560;10.246;2023-04-01T09:51:00;99428.06;;;12.36;95.13
18749;BME280;9503;53.560;10.246;2023-04-01T09:53:41;99429.75;;;11.21;97.64
18749;BME280;9503;53.560;10.246;2023-04-01T09:56:26;99434.72;;;11.15;99.45
18749;BME280;9503;53.560;10.246;2023-04-01T09:59:30;99442.13;;;11.03;100.00
18749;BME280;9503;53.560;10.246;2023-04-01T10:05:39;99437.38;;;10.85;100.00
18749;BME280;9503;53.560;10.246;2023-04-01T10:08:37;99445.69;;;10.76;100.00
18749;BME280;9503;53.560;10.246;2023-04-01T10:17:39;99458.00;;;11.23;99.01
18749;BME280;9503;53.560;10.246;2023-04-01T10:20:36;99458.97;;;11.26;100.00
18749;BME280;9503;53.560;10.246;2023-04-01T10:23:21;99470.25;;;11.33;97.66
18749;BME280;9503;53.560;10.246;2023-04-01T10:26:12;99480.69;;;11.77;97.16
18749;BME280;9503;53.560;10.246;2023-04-01T10:29:02;99481.19;;;11.26;99.16
18749;BME280;9503;53.560;10.246;2023-04-01T10:35:09;99475.75;;;10.82;99.88
18749;BME280;9503;53.560;10.246;2023-04-01T10:40:56;99491.22;;;11.86;96.85
18749;BME280;9503;53.560;10.246;2023-04-01T10:46:39;99492.66;;;12.12;94.38
18749;BME280;9503;53.560;10.246;2023-04-01T10:49:37;99498.19;;;11.92;95.73
18749;BME280;9503;53.560;10.246;2023-04-01T10:52:36;99493.78;;;11.51;95.27
18749;BME280;9503;53.560;10.246;2023-04-01T10:55:26;99502.41;;;11.20;99.48
18749;BME280;9503;53.560;10.246;2023-04-01T10:58:34;99507.63;;;11.58;96.09
18749;BME280;9503;53.560;10.246;2023-04-01T11:01:22;99519.19;;;11.75;97.75
18749;BME280;9503;53.560;10.246;2023-04-01T11:07:22;99518.88;;;11.98;94.96
18749;BME280;9503;53.560;10.246;2023-04-01T11:16:38;99531.06;;;11.72;96.79
18749;BME280;9503;53.560;10.246;2023-04-01T11:22:26;99532.22;;;11.48;96.24
18749;BME280;9503;53.560;10.246;2023-04-01T11:28:37;99540.41;;;11.35;98.30
18749;BME280;9503;53.560;10.246;2023-04-01T11:34:26;99552.81;;;11.18;98.29
18749;BME280;9503;53.560;10.246;2023-04-01T11:37:05;99546.69;;;11.13;97.79
18749;BME280;9503;53.560;10.246;2023-04-01T11:39:38;99561.63;;;10.96;99.37
18749;BME280;9503;53.560;10.246;2023-04-01T11:42:18;99584.25;;;11.76;96.50
18749;BME280;9503;53.560;10.246;2023-04-01T11:44:53;99564.84;;;10.89;98.10
18749;BME280;9503;53.560;10.246;2023-04-01T11:48:03;99568.44;;;11.27;95.86
18749;BME280;9503;53.560;10.246;2023-04-01T11:50:55;99581.47;;;11.02;97.33
18749;BME280;9503;53.560;10.246;2023-04-01T11:53:39;99580.25;;;10.61;99.76
18749;BME280;9503;53.560;10.246;2023-04-01T11:56:19;99600.41;;;11.08;98.42
18749;BME280;9503;53.560;10.246;2023-04-01T12:01:49;99605.47;;;10.75;98.25
18749;BME280;9503;53.560;10.246;2023-04-01T12:07:29;99600.59;;;10.85;97.51
18749;BME280;9503;53.560;10.246;2023-04-01T12:10:05;99607.78;;;10.66;97.46
18749;BME280;9503;53.560;10.246;2023-04-01T12:12:45;99612.13;;;10.69;95.70
18749;BME280;9503;53.560;10.246;2023-04-01T12:15:19;99621.09;;;11.13;95.98
18749;BME280;9503;53.560;10.246;2023-04-01T12:17:52;99622.53;;;11.03;95.28
18749;BME280;9503;53.560;10.246;2023-04-01T12:20:32;99633.13;;;11.16;93.47
18749;BME280;9503;53.560;10.246;2023-04-01T12:23:12;99627.19;;;11.48;92.81
18749;BME280;9503;53.560;10.246;2023-04-01T12:26:00;99631.38;;;11.15;93.51
18749;BME280;9503;53.560;10.246;2023-04-01T12:28:43;99645.94;;;10.86;95.47
18749;BME280;9503;53.560;10.246;2023-04-01T12:31:27;99649.38;;;11.16;95.23
18749;BME280;9503;53.560;10.246;2023-04-01T12:34:33;99654.69;;;10.11;95.74
18749;BME280;9503;53.560;10.246;2023-04-01T12:37:13;99651.06;;;10.57;95.74
18749;BME280;9503;53.560;10.246;2023-04-01T12:39:54;99661.50;;;10.63;95.38
18749;BME280;9503;53.560;10.246;2023-04-01T12:42:44;99660.41;;;10.03;96.58
18749;BME280;9503;53.560;10.246;2023-04-01T12:45:29;99660.16;;;11.04;93.14
18749;BME280;9503;53.560;10.246;2023-04-01T12:54:22;99674.81;;;11.08;91.21
18749;BME280;9503;53.560;10.246;2023-04-01T12:57:09;99682.84;;;11.51;90.30
18749;BME280;9503;53.560;10.246;2023-04-01T12:59:57;99689.72;;;11.22;90.60
18749;BME280;9503;53.560;10.246;2023-04-01T13:02:36;99693.91;;;10.61;91.54
18749;BME280;9503;53.560;10.246;2023-04-01T13:05:25;99697.16;;;10.56;93.22
18749;BME280;9503;53.560;10.246;2023-04-01T13:08:19;99701.47;;;10.85;91.78
18749;BME280;9503;53.560;10.246;2023-04-01T13:11:07;99714.19;;;10.54;92.55
18749;BME280;9503;53.560;10.246;2023-04-01T13:14:04;99712.38;;;11.06;90.54
18749;BME280;9503;53.560;10.246;2023-04-01T13:16:57;99723.09;;;11.22;88.30
18749;BME280;9503;53.560;10.246;2023-04-01T13:19:33;99726.88;;;10.23;91.68
18749;BME280;9503;53.560;10.246;2023-04-01T13:22:06;99731.53;;;10.62;91.68
18749;BME280;9503;53.560;10.246;2023-04-01T13:24:44;99731.06;;;10.74;92.50
18749;BME280;9503;53.560;10.246;2023-04-01T13:27:17;99740.19;;;10.39;92.57
18749;BME280;9503;53.560;10.246;2023-04-01T13:29:56;99724.88;;;10.42;90.77
18749;BME280;9503;53.560;10.246;2023-04-01T13:32:30;99742.88;;;10.97;89.64
18749;BME280;9503;53.560;10.246;2023-04-01T13:35:10;99741.78;;;10.89;86.28
18749;BME280;9503;53.560;10.246;2023-04-01T13:40:33;99749.44;;;10.88;88.26
18749;BME280;9503;53.560;10.246;2023-04-01T13:43:10;99750.13;;;10.30;88.77
18749;BME280;9503;53.560;10.246;2023-04-01T13:45:55;99746.03;;;10.11;91.49
18749;BME280;9503;53.560;10.246;2023-04-01T13:48:44;99767.66;;;10.97;88.96
18749;BME280;9503;53.560;10.246;2023-04-01T13:51:32;99759.47;;;10.80;87.30
18749;BME280;9503;53.560;10.246;2023-04-01T13:54:36;99762.34;;;11.19;87.35
18749;BME280;9503;53.560;10.246;2023-04-01T13:57:20;99773.81;;;10.49;88.50
18749;BME280;9503;53.560;10.246;2023-04-01T14:03:11;99783.66;;;10.36;91.34
18749;BME280;9503;53.560;10.246;2023-04-01T14:05:51;99784.34;;;9.84;90.55
18749;BME280;9503;53.560;10.246;2023-04-01T14:08:30;99790.44;;;10.61;89.79
18749;BME280;9503;53.560;10.246;2023-04-01T14:11:10;99794.44;;;11.63;85.37
18749;BME280;9503;53.560;10.246;2023-04-01T14:13:46;99800.56;;;11.10;87.06
18749;BME280;9503;53.560;10.246;2023-04-01T14:16:38;99807.94;;;11.01;87.74
18749;BME280;9503;53.560;10.246;2023-04-01T14:19:20;99811.50;;;9.79;89.61
18749;BME280;9503;53.560;10.246;2023-04-01T14:21:58;99811.31;;;9.98;90.59
18749;BME280;9503;53.560;10.246;2023-04-01T14:24:45;99818.19;;;9.99;91.30
18749;BME280;9503;53.560;10.246;2023-04-01T14:27:25;99827.53;;;9.98;91.01
18749;BME280;9503;53.560;10.246;2023-04-01T14:30:05;99830.81;;;9.94;91.11
18749;BME280;9503;53.560;10.246;2023-04-01T14:32:46;99826.78;;;10.49;89.82
18749;BME280;9503;53.560;10.246;2023-04-01T14:35:25;99830.00;;;9.95;90.33
18749;BME280;9503;53.560;10.246;2023-04-01T14:38:04;99834.94;;;10.37;89.63
18749;BME280;9503;53.560;10.246;2023-04-01T14:40:48;99840.19;;;10.66;88.33
18749;BME280;9503;53.560;10.246;2023-04-01T14:43:36;99847.28;;;10.49;87.55
18749;BME280;9503;53.560;10.246;2023-04-01T14:49:18;99846.56;;;9.81;89.12
18749;BME280;9503;53.560;10.246;2023-04-01T14:51:49;99859.34;;;10.28;88.52
18749;BME280;9503;53.560;10.246;2023-04-01T14:54:19;99864.78;;;10.61;88.49
18749;BME280;9503;53.560;10.246;2023-04-01T14:56:50;99870.09;;;10.19;89.14
18749;BME280;9503;53.560;10.246;2023-04-01T14:59:26;99858.13;;;10.42;89.20
18749;BME280;9503;53.560;10.246;2023-04-01T15:01:58;99872.63;;;9.93;90.12
18749;BME280;9503;53.560;10.246;2023-04-01T15:04:50;99877.16;;;9.78;92.47
18749;BME280;9503;53.560;10.246;2023-04-01T15:07:41;99879.53;;;9.29;93.32
18749;BME280;9503;53.560;10.246;2023-04-01T15:10:23;99889.59;;;9.69;93.21
18749;BME280;9503;53.560;10.246;2023-04-01T15:13:07;99884.63;;;9.50;93.71
18749;BME280;9503;53.560;10.246;2023-04-01T15:15:49;99895.91;;;9.55;93.98
18749;BME280;9503;53.560;10.246;2023-04-01T15:18:23;99900.53;;;10.10;91.81
18749;BME280;9503;53.560;10.246;2023-04-01T15:21:07;99905.91;;;9.93;91.04
18749;BME280;9503;53.560;10.246;2023-04-01T15:23:54;99912.75;;;9.94;91.60
18749;BME280;9503;53.560;10.246;2023-04-01T15:26:42;99913.53;;;9.26;93.66
18749;BME280;9503;53.560;10.246;2023-04-01T15:29:30;99919.81;;;9.55;92.29
18749;BME280;9503;53.560;10.246;2023-04-01T15:32:03;99929.28;;;9.58;92.97
18749;BME280;9503;53.560;10.246;2023-04-01T15:34:43;99927.88;;;9.88;93.36
18749;BME280;9503;53.560;10.246;2023-04-01T15:37:20;99942.09;;;9.80;92.87
18749;BME280;9503;53.560;10.246;2023-04-01T15:39:56;99937.59;;;9.52;94.19
18749;BME280;9503;53.560;10.246;2023-04-01T15:42:35;99940.56;;;9.20;95.95
18749;BME280;9503;53.560;10.246;2023-04-01T15:45:15;99946.53;;;8.99;97.60
18749;BME280;9503;53.560;10.246;2023-04-01T15:47:45;99952.44;;;9.40;94.97
18749;BME280;9503;53.560;10.246;2023-04-01T15:50:43;99951.75;;;8.81;96.66
18749;BME280;9503;53.560;10.246;2023-04-01T15:53:21;99957.44;;;9.16;96.90
18749;BME280;9503;53.560;10.246;2023-04-01T15:55:57;99966.09;;;8.99;95.95
18749;BME280;9503;53.560;10.246;2023-04-01T15:58:37;99971.69;;;9.74;92.97
18749;BME280;9503;53.560;10.246;2023-04-01T16:01:22;99969.44;;;8.57;95.25
18749;BME280;9503;53.560;10.246;2023-04-01T16:03:56;99980.25;;;8.71;95.88